Terminal Aerodrome Forecast
Issued by NWS

Home | Current Version | Previous Version | Text Only | Print | Product List | Glossary On
Versions: 1 2 3 4 5 6 7 8 9 10 11 12 13 14 15 16
000
FTUS44 KSJT 031700
TAFJCT
TAF
KJCT 031737Z 0318/0418 21010G16KT P6SM SCT035
     FM040000 15007KT P6SM SKC
     FM040900 VRB06KT P6SM OVC015=

USA.gov is the U.S. government's official web portal to all federal, state and local government web resources and services.